createdAt,value
2019-04-14T00:00:40.483Z,25.10
2019-04-14T00:03:15.273Z,25.10
2019-04-14T00:05:43.032Z,25.10
2019-04-14T00:08:11.072Z,25.10
2019-04-14T00:10:40.020Z,25.20
2019-04-14T00:13:07.265Z,25.10
2019-04-14T00:15:40.477Z,25.10
2019-04-14T00:18:03.836Z,25.20
2019-04-14T00:20:31.529Z,25.20
2019-04-14T00:22:59.819Z,25.10
2019-04-14T00:25:28.340Z,25.10
2019-04-14T00:27:56.726Z,25.10
2019-04-14T00:30:25.744Z,25.10
2019-04-14T00:32:59.497Z,25.10
2019-04-14T00:35:34.217Z,25.10
2019-04-14T00:38:21.790Z,25.10
2019-04-14T00:40:58.545Z,25.00
2019-04-14T00:43:44.005Z,25.00
2019-04-14T00:46:12.782Z,25.00
2019-04-14T00:48:40.933Z,25.00
2019-04-14T00:51:09.164Z,25.00
2019-04-14T00:53:36.442Z,25.00
2019-04-14T00:56:04.698Z,25.00
2019-04-14T00:58:32.219Z,24.90
2019-04-14T01:01:00.445Z,24.90
2019-04-14T01:03:28.694Z,24.90
2019-04-14T01:05:56.773Z,24.80
2019-04-14T01:08:26.777Z,24.80
2019-04-14T01:10:54.071Z,24.80
2019-04-14T01:13:20.746Z,24.80
2019-04-14T01:15:57.808Z,24.80
2019-04-14T01:18:16.832Z,24.70
2019-04-14T01:20:44.879Z,24.70
2019-04-14T01:23:12.883Z,24.60
2019-04-14T01:25:40.968Z,24.60
2019-04-14T01:28:08.875Z,24.60
2019-04-14T01:30:35.817Z,24.60
2019-04-14T01:33:03.262Z,24.50
2019-04-14T01:35:31.326Z,24.50
2019-04-14T01:37:59.351Z,24.60
2019-04-14T01:40:27.091Z,24.60
2019-04-14T01:42:54.912Z,24.60
2019-04-14T01:45:23.133Z,24.60
2019-04-14T01:47:51.009Z,24.60
2019-04-14T01:50:19.778Z,24.60
2019-04-14T01:52:52.206Z,24.50
2019-04-14T01:55:22.314Z,24.60
2019-04-14T01:58:03.240Z,24.60
2019-04-14T02:00:32.049Z,24.50
2019-04-14T02:02:59.730Z,24.50
2019-04-14T02:05:27.777Z,24.40
2019-04-14T02:07:55.780Z,24.40
2019-04-14T02:10:23.884Z,24.40
2019-04-14T02:12:51.791Z,24.30
2019-04-14T02:15:19.983Z,24.30
2019-04-14T02:17:48.046Z,24.20
2019-04-14T02:20:16.325Z,24.20
2019-04-14T02:22:44.090Z,24.20
2019-04-14T02:25:12.026Z,24.20
2019-04-14T02:27:38.902Z,24.20
2019-04-14T02:30:07.257Z,24.10
2019-04-14T02:33:05.456Z,24.10
2019-04-14T02:38:02.048Z,24.10
2019-04-14T02:40:39.316Z,24.10
2019-04-14T02:45:34.851Z,24.00
2019-04-14T02:48:03.347Z,24.00
2019-04-14T02:53:02.466Z,24.00
2019-04-14T02:55:32.434Z,23.90
2019-04-14T02:58:03.811Z,23.90
2019-04-14T03:00:37.141Z,23.90
2019-04-14T03:02:56.959Z,23.80
2019-04-14T03:05:26.732Z,23.80
2019-04-14T03:08:00.424Z,23.80
2019-04-14T03:10:28.082Z,23.80
2019-04-14T03:13:01.854Z,23.80
2019-04-14T03:18:00.528Z,23.80
2019-04-14T03:20:25.930Z,23.70
2019-04-14T03:23:08.848Z,23.70
2019-04-14T03:25:37.586Z,23.70
2019-04-14T03:28:40.269Z,23.70
2019-04-14T03:31:21.320Z,23.70
2019-04-14T03:33:49.409Z,23.70
2019-04-14T03:36:16.677Z,23.70
2019-04-14T03:38:24.793Z,23.60
2019-04-14T03:40:58.508Z,23.50
2019-04-14T03:46:09.488Z,23.50
2019-04-14T03:50:55.623Z,23.40
2019-04-14T03:53:22.196Z,23.50
2019-04-14T03:55:55.513Z,23.50
2019-04-14T03:58:18.218Z,23.50
2019-04-14T04:00:46.459Z,23.50
2019-04-14T04:03:15.225Z,23.60
2019-04-14T04:05:42.042Z,23.60
2019-04-14T04:08:09.347Z,23.50
2019-04-14T04:10:44.358Z,23.50
2019-04-14T04:13:13.348Z,23.50
2019-04-14T04:15:41.193Z,23.50
2019-04-14T04:18:11.235Z,23.50
2019-04-14T04:20:52.415Z,23.50
2019-04-14T04:23:31.394Z,23.50
2019-04-14T04:26:10.424Z,23.60
2019-04-14T04:28:56.238Z,23.60
2019-04-14T04:31:30.738Z,23.60
2019-04-14T04:34:16.723Z,23.60
2019-04-14T04:36:48.762Z,23.60
2019-04-14T04:39:21.519Z,23.70
2019-04-14T04:41:49.334Z,23.70
2019-04-14T04:44:16.097Z,23.80
2019-04-14T04:46:43.816Z,23.80
2019-04-14T04:49:16.440Z,23.80
2019-04-14T04:51:40.025Z,23.80
2019-04-14T04:54:08.079Z,23.90
2019-04-14T04:56:36.131Z,24.00
2019-04-14T04:59:04.041Z,24.10
2019-04-14T05:01:31.777Z,24.30
2019-04-14T05:03:58.637Z,24.50
2019-04-14T05:06:59.816Z,24.70
2019-04-14T05:09:40.583Z,24.90
2019-04-14T05:12:18.113Z,25.10
2019-04-14T05:14:50.112Z,25.30
2019-04-14T05:17:19.097Z,25.60
2019-04-14T05:19:45.930Z,25.80
2019-04-14T05:22:15.953Z,26.00
2019-04-14T05:24:41.796Z,26.20
2019-04-14T05:27:10.594Z,26.40
2019-04-14T05:29:38.586Z,26.40
2019-04-14T05:32:06.568Z,26.60
2019-04-14T05:34:34.559Z,26.80
2019-04-14T05:37:02.888Z,27.00
2019-04-14T05:39:30.765Z,27.10
2019-04-14T05:42:06.577Z,27.10
2019-04-14T05:44:29.642Z,27.20
2019-04-14T05:46:55.751Z,27.40
2019-04-14T05:49:31.532Z,27.50
2019-04-14T05:51:54.392Z,27.60
2019-04-14T05:54:21.250Z,27.70
2019-04-14T05:56:49.416Z,27.80
2019-04-14T05:59:16.418Z,28.00
2019-04-14T06:01:45.006Z,28.10
2019-04-14T06:04:13.503Z,28.10
2019-04-14T06:06:40.414Z,28.00
2019-04-14T06:09:08.277Z,27.90
2019-04-14T06:11:38.288Z,27.80
2019-04-14T06:14:06.864Z,27.80
2019-04-14T06:16:35.163Z,27.70
2019-04-14T06:19:01.979Z,27.60
2019-04-14T06:21:29.166Z,27.60
2019-04-14T06:23:55.833Z,27.60
2019-04-14T06:26:22.910Z,27.70
2019-04-14T06:28:50.098Z,27.80
2019-04-14T06:31:35.815Z,28.00
2019-04-14T06:34:04.988Z,28.20
2019-04-14T06:36:50.723Z,28.50
2019-04-14T06:39:29.335Z,28.80
2019-04-14T06:41:58.107Z,29.10
2019-04-14T06:44:25.084Z,29.50
2019-04-14T06:46:52.114Z,29.70
2019-04-14T06:49:19.114Z,30.00
2019-04-14T06:51:45.994Z,30.20
2019-04-14T06:54:12.946Z,30.30
2019-04-14T06:56:39.864Z,30.40
2019-04-14T06:59:07.344Z,30.50
2019-04-14T07:01:35.636Z,30.50
2019-04-14T07:04:02.467Z,30.50
2019-04-14T07:06:29.380Z,30.50
2019-04-14T07:08:56.200Z,30.40
2019-04-14T07:11:23.011Z,30.30
2019-04-14T07:13:50.018Z,30.30
2019-04-14T07:16:17.133Z,30.40
2019-04-14T07:18:44.368Z,30.50
2019-04-14T07:21:11.505Z,30.70
2019-04-14T07:23:38.307Z,30.80
2019-04-14T07:26:05.533Z,30.90
2019-04-14T07:28:32.718Z,31.00
2019-04-14T07:31:12.153Z,31.10
2019-04-14T07:33:56.163Z,31.20
2019-04-14T07:36:37.251Z,31.40
2019-04-14T07:39:19.461Z,31.50
2019-04-14T07:41:50.769Z,31.60
2019-04-14T07:44:19.606Z,31.70
2019-04-14T07:46:54.317Z,31.70
2019-04-14T07:49:22.993Z,31.70
2019-04-14T07:51:55.105Z,31.80
2019-04-14T07:54:24.868Z,31.80
2019-04-14T07:57:06.050Z,32.00
2019-04-14T07:59:34.937Z,32.00
2019-04-14T08:02:06.653Z,32.10
2019-04-14T08:04:35.380Z,32.10
2019-04-14T08:07:02.301Z,32.10
2019-04-14T08:09:29.124Z,32.10
2019-04-14T08:11:55.902Z,32.10
2019-04-14T08:14:24.645Z,32.10
2019-04-14T08:16:51.471Z,32.00
2019-04-14T08:19:18.270Z,32.00
2019-04-14T08:21:45.387Z,32.00
2019-04-14T08:24:13.173Z,32.00
2019-04-14T08:26:40.249Z,31.90
2019-04-14T08:29:07.287Z,31.70
2019-04-14T08:31:34.501Z,31.50
2019-04-14T08:34:01.368Z,31.30
2019-04-14T08:36:28.295Z,31.20
2019-04-14T08:38:55.363Z,31.20
2019-04-14T08:41:25.227Z,31.30
2019-04-14T08:43:57.108Z,31.40
2019-04-14T08:46:31.818Z,31.70
2019-04-14T08:49:00.719Z,31.90
2019-04-14T08:51:29.814Z,32.00
2019-04-14T08:54:08.743Z,32.20
2019-04-14T08:56:43.565Z,32.30
2019-04-14T08:59:18.290Z,32.40
2019-04-14T09:01:47.006Z,32.50
2019-04-14T09:04:15.745Z,32.60
2019-04-14T09:06:44.791Z,32.60
2019-04-14T09:09:16.608Z,32.70
2019-04-14T09:11:45.118Z,32.60
2019-04-14T09:14:12.239Z,32.70
2019-04-14T09:16:42.102Z,32.60
2019-04-14T09:19:09.194Z,32.60
2019-04-14T09:21:36.128Z,32.50
2019-04-14T09:24:03.121Z,32.40
2019-04-14T09:26:30.054Z,32.30
2019-04-14T09:28:56.841Z,32.10
2019-04-14T09:31:23.793Z,32.00
2019-04-14T09:33:50.612Z,31.90
2019-04-14T09:36:17.727Z,32.00
2019-04-14T09:38:44.646Z,31.90
2019-04-14T09:41:11.476Z,31.80
2019-04-14T09:43:38.633Z,31.70
2019-04-14T09:46:07.322Z,31.60
2019-04-14T09:48:34.353Z,31.50
2019-04-14T09:51:05.136Z,31.50
2019-04-14T09:53:30.331Z,31.50
2019-04-14T09:55:57.334Z,31.40
2019-04-14T09:58:24.088Z,31.30
2019-04-14T10:00:52.659Z,31.00
2019-04-14T10:03:20.384Z,31.00
2019-04-14T10:05:47.354Z,31.00
2019-04-14T10:08:14.402Z,30.90
2019-04-14T10:10:41.870Z,30.80
2019-04-14T10:13:10.030Z,30.90
2019-04-14T10:15:37.076Z,30.90
2019-04-14T10:18:04.223Z,30.80
2019-04-14T10:20:31.295Z,30.80
2019-04-14T10:22:58.517Z,30.80
2019-04-14T10:25:25.593Z,30.80
2019-04-14T10:27:52.486Z,30.90
2019-04-14T10:30:19.449Z,31.00
2019-04-14T10:32:46.222Z,31.20
2019-04-14T10:35:13.232Z,31.20
2019-04-14T10:37:40.280Z,31.20
2019-04-14T10:40:07.426Z,31.30
2019-04-14T10:42:34.257Z,31.30
2019-04-14T10:45:01.428Z,31.20
2019-04-14T10:47:28.465Z,31.20
2019-04-14T10:49:55.735Z,31.20
2019-04-14T10:52:23.080Z,31.20
2019-04-14T10:54:50.109Z,31.40
2019-04-14T10:57:17.094Z,31.50
2019-04-14T10:59:44.403Z,31.70
2019-04-14T11:02:11.448Z,31.80
2019-04-14T11:04:38.697Z,31.90
2019-04-14T11:07:10.512Z,32.00
2019-04-14T11:09:37.338Z,32.20
2019-04-14T11:12:04.548Z,32.20
2019-04-14T11:14:32.182Z,32.40
2019-04-14T11:16:59.515Z,32.50
2019-04-14T11:19:26.530Z,32.40
2019-04-14T11:21:53.632Z,32.30
2019-04-14T11:24:24.044Z,32.10
2019-04-14T11:26:51.434Z,32.00
2019-04-14T11:29:18.682Z,31.80
2019-04-14T11:31:50.575Z,31.70
2019-04-14T11:34:19.421Z,31.80
2019-04-14T11:36:57.638Z,31.90
2019-04-14T11:39:27.363Z,32.10
2019-04-14T11:41:55.118Z,32.30
2019-04-14T11:44:22.120Z,32.40
2019-04-14T11:46:49.093Z,32.50
2019-04-14T11:49:16.355Z,32.60
2019-04-14T11:51:54.658Z,32.70
2019-04-14T11:54:12.682Z,32.80
2019-04-14T11:56:39.887Z,32.90
2019-04-14T11:59:07.290Z,33.00
2019-04-14T12:01:36.183Z,33.10
2019-04-14T12:04:08.144Z,33.10
2019-04-14T12:06:36.838Z,33.00
2019-04-14T12:09:13.353Z,33.00
2019-04-14T12:11:42.299Z,33.10
2019-04-14T12:14:09.325Z,33.10
2019-04-14T12:16:36.584Z,33.10
2019-04-14T12:19:03.622Z,33.20
2019-04-14T12:21:30.664Z,33.30
2019-04-14T12:23:57.670Z,33.40
2019-04-14T12:26:24.900Z,33.30
2019-04-14T12:28:52.000Z,33.30
2019-04-14T12:31:30.975Z,33.10
2019-04-14T12:33:58.073Z,32.90
2019-04-14T12:36:25.123Z,32.70
2019-04-14T12:38:52.064Z,32.60
2019-04-14T12:41:22.041Z,32.70
2019-04-14T12:43:54.764Z,32.70
2019-04-14T12:46:32.602Z,32.80
2019-04-14T12:49:01.455Z,32.90
2019-04-14T12:51:33.404Z,33.00
2019-04-14T12:54:00.151Z,33.00
2019-04-14T12:56:29.281Z,33.10
2019-04-14T12:59:01.301Z,33.20
2019-04-14T13:01:30.397Z,33.30
2019-04-14T13:03:57.546Z,33.20
2019-04-14T13:06:24.620Z,33.20
2019-04-14T13:08:54.102Z,33.20
2019-04-14T13:11:21.164Z,33.20
2019-04-14T13:13:48.652Z,33.30
2019-04-14T13:16:15.839Z,33.40
2019-04-14T13:18:42.899Z,33.40
2019-04-14T13:21:10.042Z,33.30
2019-04-14T13:23:37.485Z,33.20
2019-04-14T13:26:04.631Z,33.10
2019-04-14T13:28:31.635Z,32.90
2019-04-14T13:30:59.234Z,32.70
2019-04-14T13:33:26.488Z,32.60
2019-04-14T13:35:53.654Z,32.50
2019-04-14T13:38:20.689Z,32.60
2019-04-14T13:40:48.242Z,32.70
2019-04-14T13:43:15.419Z,32.80
2019-04-14T13:45:44.297Z,33.00
2019-04-14T13:48:12.429Z,33.00
2019-04-14T13:50:39.999Z,33.10
2019-04-14T13:53:06.951Z,33.10
2019-04-14T13:55:33.998Z,33.10
2019-04-14T13:58:01.130Z,33.00
2019-04-14T14:00:28.695Z,33.00
2019-04-14T14:02:55.845Z,32.90
2019-04-14T14:05:22.913Z,32.80
2019-04-14T14:07:49.884Z,32.80
2019-04-14T14:10:17.093Z,32.90
2019-04-14T14:12:57.875Z,33.00
2019-04-14T14:15:26.883Z,33.00
2019-04-14T14:18:12.724Z,33.00
2019-04-14T14:20:47.034Z,33.00
2019-04-14T14:23:16.035Z,32.90
2019-04-14T14:25:46.094Z,32.90
2019-04-14T14:28:13.093Z,32.90
2019-04-14T14:30:40.972Z,32.90
2019-04-14T14:33:09.143Z,32.90
2019-04-14T14:35:37.830Z,32.70
2019-04-14T14:38:05.177Z,32.70
2019-04-14T14:40:32.230Z,32.60
2019-04-14T14:43:00.487Z,32.50
2019-04-14T14:45:41.704Z,32.60
2019-04-14T14:48:20.384Z,32.60
2019-04-14T14:51:06.329Z,32.70
2019-04-14T14:53:34.246Z,32.70
2019-04-14T14:56:01.130Z,32.70
2019-04-14T14:58:28.348Z,32.70
2019-04-14T15:00:55.375Z,32.70
2019-04-14T15:03:22.338Z,32.70
2019-04-14T15:05:49.218Z,32.70
2019-04-14T15:08:16.205Z,32.70
2019-04-14T15:10:42.973Z,32.60
2019-04-14T15:13:09.917Z,32.50
2019-04-14T15:15:36.931Z,32.50
2019-04-14T15:18:03.820Z,32.40
2019-04-14T15:20:31.162Z,32.30
2019-04-14T15:22:58.197Z,32.20
2019-04-14T15:25:25.527Z,32.30
2019-04-14T15:27:52.567Z,32.20
2019-04-14T15:30:23.024Z,32.10
2019-04-14T15:32:50.247Z,32.10
2019-04-14T15:35:17.198Z,32.00
2019-04-14T15:37:44.235Z,32.00
2019-04-14T15:40:11.624Z,32.00
2019-04-14T15:42:38.428Z,32.00
2019-04-14T15:45:05.880Z,31.90
2019-04-14T15:47:32.816Z,31.80
2019-04-14T15:49:59.780Z,31.80
2019-04-14T15:52:26.838Z,31.70
2019-04-14T15:54:54.367Z,31.50
2019-04-14T15:57:25.713Z,31.50
2019-04-14T15:59:54.836Z,31.40
2019-04-14T16:02:35.578Z,31.30
2019-04-14T16:05:24.226Z,31.30
2019-04-14T16:07:53.222Z,31.30
2019-04-14T16:10:24.532Z,31.30
2019-04-14T16:13:11.199Z,31.20
2019-04-14T16:15:56.973Z,31.10
2019-04-14T16:18:31.468Z,31.00
2019-04-14T16:20:58.531Z,31.00
2019-04-14T16:23:25.619Z,30.90
2019-04-14T16:25:57.009Z,30.70
2019-04-14T16:28:25.900Z,30.70
2019-04-14T16:30:56.122Z,30.50
2019-04-14T16:33:24.951Z,30.40
2019-04-14T16:35:52.710Z,30.30
2019-04-14T16:38:19.720Z,30.20
2019-04-14T16:40:46.550Z,30.10
2019-04-14T16:43:13.803Z,30.10
2019-04-14T16:45:40.745Z,30.00
2019-04-14T16:48:07.689Z,29.80
2019-04-14T16:50:34.853Z,29.80
2019-04-14T16:53:09.181Z,29.60
2019-04-14T16:55:56.396Z,29.50
2019-04-14T16:58:41.447Z,29.40
2019-04-14T17:01:13.000Z,29.30
2019-04-14T17:03:40.123Z,29.30
2019-04-14T17:06:07.132Z,29.10
2019-04-14T17:08:34.101Z,29.10
2019-04-14T17:11:01.118Z,28.90
2019-04-14T17:13:30.270Z,28.80
2019-04-14T17:16:02.129Z,28.70
2019-04-14T17:18:30.909Z,28.60
2019-04-14T17:21:03.147Z,28.40
2019-04-14T17:23:43.945Z,28.40
2019-04-14T17:26:29.115Z,28.20
2019-04-14T17:29:16.449Z,28.10
2019-04-14T17:31:49.110Z,28.00
2019-04-14T17:34:27.214Z,27.90
2019-04-14T17:36:56.213Z,27.90
2019-04-14T17:39:25.554Z,27.70
2019-04-14T17:41:54.507Z,27.60
2019-04-14T17:44:26.406Z,27.60
2019-04-14T17:47:14.208Z,27.50
2019-04-14T17:49:42.958Z,27.40
2019-04-14T17:52:31.181Z,27.40
2019-04-14T17:55:05.412Z,27.30
2019-04-14T17:57:50.876Z,27.30
2019-04-14T18:00:26.170Z,27.20
2019-04-14T18:02:55.262Z,27.10
2019-04-14T18:05:29.892Z,27.10
2019-04-14T18:07:58.980Z,27.00
2019-04-14T18:10:40.259Z,26.90
2019-04-14T18:13:24.597Z,26.80
2019-04-14T18:16:07.500Z,26.80
2019-04-14T18:18:53.330Z,26.80
2019-04-14T18:21:20.537Z,26.80
2019-04-14T18:23:47.476Z,26.70
2019-04-14T18:26:15.136Z,26.60
2019-04-14T18:28:53.806Z,26.60
2019-04-14T18:31:31.651Z,26.50
2019-04-14T18:34:12.468Z,26.50
2019-04-14T18:36:59.822Z,26.50
2019-04-14T18:39:32.765Z,26.40
2019-04-14T18:42:02.018Z,26.40
2019-04-14T18:44:40.023Z,26.40
2019-04-14T18:47:25.715Z,26.40
2019-04-14T18:50:00.128Z,26.40
2019-04-14T18:52:32.178Z,26.30
2019-04-14T18:55:04.160Z,26.30
2019-04-14T18:57:35.612Z,26.20
2019-04-14T19:00:11.143Z,26.20
2019-04-14T19:02:40.030Z,26.10
2019-04-14T19:05:07.268Z,26.10
2019-04-14T19:07:37.805Z,26.10
2019-04-14T19:10:06.284Z,26.00
2019-04-14T19:12:35.379Z,25.90
2019-04-14T19:15:19.522Z,25.90
2019-04-14T19:17:48.307Z,25.80
2019-04-14T19:20:17.006Z,25.80
2019-04-14T19:22:44.246Z,25.80
2019-04-14T19:25:11.599Z,25.70
2019-04-14T19:27:38.678Z,25.70
2019-04-14T19:30:06.355Z,25.60
2019-04-14T19:32:33.697Z,25.60
2019-04-14T19:35:00.801Z,25.60
2019-04-14T19:37:29.077Z,25.50
2019-04-14T19:39:56.246Z,25.50
2019-04-14T19:42:23.318Z,25.40
2019-04-14T19:44:51.644Z,25.40
2019-04-14T19:47:18.802Z,25.40
2019-04-14T19:49:45.791Z,25.30
2019-04-14T19:52:12.987Z,25.30
2019-04-14T19:54:40.244Z,25.30
2019-04-14T19:57:07.398Z,25.30
2019-04-14T19:59:34.634Z,25.20
2019-04-14T20:02:01.683Z,25.10
2019-04-14T20:04:29.771Z,25.10
2019-04-14T20:06:58.945Z,25.00
2019-04-14T20:09:30.610Z,25.00
2019-04-14T20:11:55.150Z,25.00
2019-04-14T20:14:23.256Z,24.90
2019-04-14T20:16:52.141Z,24.90
2019-04-14T20:19:26.796Z,24.80
2019-04-14T20:21:55.761Z,24.80
2019-04-14T20:24:33.783Z,24.80
2019-04-14T20:27:05.828Z,24.70
2019-04-14T20:29:40.847Z,24.70
2019-04-14T20:32:15.711Z,24.70
2019-04-14T20:34:42.731Z,24.70
2019-04-14T20:37:10.201Z,24.60
2019-04-14T20:39:37.219Z,24.60
2019-04-14T20:42:05.705Z,24.60
2019-04-14T20:44:33.775Z,24.50
2019-04-14T20:47:01.146Z,24.50
2019-04-14T20:49:41.517Z,24.50
2019-04-14T20:52:08.807Z,24.40
2019-04-14T20:54:36.127Z,24.50
2019-04-14T20:57:03.068Z,24.40
2019-04-14T20:59:31.372Z,24.40
2019-04-14T21:02:00.674Z,24.40
2019-04-14T21:04:41.679Z,24.30
2019-04-14T21:07:19.047Z,24.30
2019-04-14T21:09:50.834Z,24.30
2019-04-14T21:12:22.442Z,24.20
2019-04-14T21:14:57.727Z,24.20
2019-04-14T21:17:29.315Z,24.20
2019-04-14T21:20:14.476Z,24.20
2019-04-14T21:23:02.057Z,24.20
2019-04-14T21:25:59.706Z,24.20
2019-04-14T21:28:25.815Z,24.20
2019-04-14T21:30:55.267Z,24.20
2019-04-14T21:33:41.134Z,24.10
2019-04-14T21:36:13.227Z,24.10
2019-04-14T21:38:48.350Z,24.10
2019-04-14T21:41:19.949Z,24.10
2019-04-14T21:43:47.063Z,24.00
2019-04-14T21:46:13.852Z,24.00
2019-04-14T21:48:42.367Z,24.00
2019-04-14T21:51:09.715Z,23.90
2019-04-14T21:53:36.909Z,23.90
2019-04-14T21:56:13.422Z,23.80
2019-04-14T21:58:51.962Z,23.80
2019-04-14T22:01:42.155Z,23.80
2019-04-14T22:04:22.555Z,23.80
2019-04-14T22:06:54.359Z,23.80
2019-04-14T22:09:23.238Z,23.70
2019-04-14T22:11:50.245Z,23.70
2019-04-14T22:14:17.226Z,23.60
2019-04-14T22:16:44.152Z,23.50
2019-04-14T22:19:11.124Z,23.50
2019-04-14T22:21:38.065Z,23.50
2019-04-14T22:24:04.895Z,23.50
2019-04-14T22:26:31.849Z,23.40
2019-04-14T22:28:58.806Z,23.40
2019-04-14T22:31:25.608Z,23.40
2019-04-14T22:33:52.465Z,23.40
2019-04-14T22:36:19.433Z,23.40
2019-04-14T22:38:46.346Z,23.40
2019-04-14T22:41:13.498Z,23.30
2019-04-14T22:43:40.289Z,23.30
2019-04-14T22:46:07.144Z,23.20
2019-04-14T22:48:33.929Z,23.20
2019-04-14T22:51:01.247Z,23.20
2019-04-14T22:53:28.029Z,23.20
2019-04-14T22:55:56.640Z,23.20
2019-04-14T22:58:23.512Z,23.20
2019-04-14T23:00:55.044Z,23.10
2019-04-14T23:03:42.129Z,23.10
2019-04-14T23:06:29.645Z,23.00
2019-04-14T23:09:01.246Z,23.00
2019-04-14T23:11:41.147Z,23.00
2019-04-14T23:14:19.237Z,23.00
2019-04-14T23:16:56.751Z,23.00
2019-04-14T23:19:43.916Z,22.90
2019-04-14T23:22:15.229Z,22.80
2019-04-14T23:24:43.917Z,22.70
2019-04-14T23:27:11.001Z,22.60
2019-04-14T23:29:38.020Z,22.60
2019-04-14T23:32:05.711Z,22.70
2019-04-14T23:34:32.493Z,22.60
2019-04-14T23:36:59.503Z,22.60
2019-04-14T23:39:26.307Z,22.60
2019-04-14T23:41:53.192Z,22.60
2019-04-14T23:44:20.025Z,22.60
2019-04-14T23:46:47.065Z,22.60
2019-04-14T23:49:13.983Z,22.60
2019-04-14T23:51:40.806Z,22.60
2019-04-14T23:54:07.718Z,22.60
2019-04-14T23:56:34.501Z,22.50
2019-04-14T23:59:01.281Z,22.50
